createdAt,value
2023-03-29T00:03:52.067Z,-6.64
2023-03-29T00:08:55.170Z,-6.66
2023-03-29T00:13:57.957Z,-6.67
2023-03-29T00:19:00.868Z,-6.63
2023-03-29T00:24:03.972Z,-6.56
2023-03-29T00:29:06.875Z,-6.53
2023-03-29T00:34:09.982Z,-6.56
2023-03-29T00:39:12.888Z,-6.55
2023-03-29T00:44:34.780Z,-6.49
2023-03-29T00:49:37.844Z,-6.45
2023-03-29T00:54:43.729Z,-6.47
2023-03-29T00:59:48.484Z,-6.54
2023-03-29T01:05:16.053Z,-6.61
2023-03-29T01:10:25.410Z,-6.60
2023-03-29T01:15:29.525Z,-6.56
2023-03-29T01:20:51.177Z,-6.55
2023-03-29T01:26:01.302Z,-6.59
2023-03-29T01:31:09.876Z,-6.67
2023-03-29T01:36:17.522Z,-6.70
2023-03-29T01:41:20.738Z,-6.72
2023-03-29T01:46:43.994Z,-6.72
2023-03-29T01:51:53.555Z,-6.73
2023-03-29T01:56:58.622Z,-6.73
2023-03-29T02:02:05.628Z,-6.71
2023-03-29T02:07:10.839Z,-6.69
2023-03-29T02:12:17.147Z,-6.78
2023-03-29T02:17:20.003Z,-6.88
2023-03-29T02:22:28.646Z,-6.93
2023-03-29T02:27:31.905Z,-6.88
2023-03-29T02:32:50.378Z,-6.83
2023-03-29T02:37:56.221Z,-6.81
2023-03-29T02:43:02.117Z,-6.80
2023-03-29T02:48:08.247Z,-6.79
2023-03-29T02:53:23.185Z,-6.75
2023-03-29T02:58:26.817Z,-6.72
2023-03-29T03:03:29.952Z,-6.70
2023-03-29T03:08:33.225Z,-6.66
2023-03-29T03:13:36.530Z,-6.61
2023-03-29T03:18:39.337Z,-6.62
2023-03-29T03:23:42.242Z,-6.68
2023-03-29T03:28:45.961Z,-6.78
2023-03-29T03:33:49.175Z,-6.81
2023-03-29T03:38:53.385Z,-6.78
2023-03-29T03:43:56.616Z,-6.82
2023-03-29T03:48:59.719Z,-6.89
2023-03-29T03:54:02.628Z,-6.87
2023-03-29T03:59:05.680Z,-6.79
2023-03-29T04:04:09.457Z,-6.72
2023-03-29T04:09:13.190Z,-6.67
2023-03-29T04:14:16.899Z,-6.61
2023-03-29T04:19:20.182Z,-6.53
2023-03-29T04:24:24.447Z,-6.49
2023-03-29T04:29:29.196Z,-6.49
2023-03-29T04:34:32.106Z,-6.44
2023-03-29T04:39:35.117Z,-6.34
2023-03-29T04:44:38.063Z,-6.27
2023-03-29T04:49:41.438Z,-6.25
2023-03-29T04:54:44.226Z,-6.19
2023-03-29T04:59:47.144Z,-6.05
2023-03-29T05:04:50.680Z,-5.89
2023-03-29T05:09:53.969Z,-5.80
2023-03-29T05:14:57.697Z,-5.67
2023-03-29T05:20:01.500Z,-5.47
2023-03-29T05:25:05.481Z,-5.27
2023-03-29T05:30:09.180Z,-5.06
2023-03-29T05:35:12.546Z,-4.84
2023-03-29T05:40:15.876Z,-4.55
2023-03-29T05:45:19.260Z,-4.25
2023-03-29T05:50:22.310Z,-3.99
2023-03-29T05:55:25.184Z,-3.72
2023-03-29T06:00:30.341Z,-3.50
2023-03-29T06:05:35.353Z,-3.30
2023-03-29T06:10:39.765Z,-3.11
2023-03-29T06:15:42.637Z,-2.98
2023-03-29T06:20:49.442Z,-2.83
2023-03-29T06:25:52.371Z,-2.70
2023-03-29T06:31:04.127Z,-2.60
2023-03-29T06:36:08.334Z,-2.50
2023-03-29T06:41:11.830Z,-2.42
2023-03-29T06:46:16.263Z,-2.28
2023-03-29T06:51:21.209Z,-2.15
2023-03-29T06:56:26.466Z,-2.04
2023-03-29T07:01:29.341Z,-1.82
2023-03-29T07:06:32.200Z,-1.67
2023-03-29T07:11:35.914Z,-1.56
2023-03-29T07:16:39.185Z,-1.36
2023-03-29T07:21:42.877Z,-1.12
2023-03-29T07:27:00.080Z,-0.87
2023-03-29T07:32:06.632Z,-0.68
2023-03-29T07:37:09.518Z,-0.48
2023-03-29T07:42:12.474Z,-0.22
2023-03-29T07:47:15.708Z,-0.01
2023-03-29T07:52:18.934Z,0.10
2023-03-29T07:57:23.845Z,0.25
2023-03-29T08:02:27.471Z,0.45
2023-03-29T08:07:30.497Z,0.54
2023-03-29T08:12:33.378Z,0.69
2023-03-29T08:17:36.944Z,0.84
2023-03-29T08:22:40.584Z,1.09
2023-03-29T08:27:43.594Z,1.29
2023-03-29T08:32:49.311Z,1.49
2023-03-29T08:37:54.817Z,1.58
2023-03-29T08:43:19.850Z,1.57
2023-03-29T08:48:29.763Z,1.78
2023-03-29T08:53:44.407Z,1.98
2023-03-29T08:58:50.571Z,2.07
2023-03-29T09:04:00.464Z,2.00
2023-03-29T09:09:11.289Z,2.12
2023-03-29T09:14:30.060Z,2.25
2023-03-29T09:20:05.129Z,2.38
2023-03-29T09:25:27.542Z,2.46
2023-03-29T09:30:49.458Z,2.54
2023-03-29T09:36:04.613Z,2.66
2023-03-29T09:41:23.541Z,2.70
2023-03-29T09:46:32.829Z,2.74
2023-03-29T09:51:39.259Z,2.74
2023-03-29T09:56:45.963Z,2.76
2023-03-29T10:01:49.174Z,2.85
2023-03-29T10:06:52.805Z,2.93
2023-03-29T10:11:57.284Z,3.03
2023-03-29T10:17:00.427Z,3.17
2023-03-29T10:22:22.067Z,3.25
2023-03-29T10:27:28.179Z,3.30
2023-03-29T10:32:36.325Z,3.33
2023-03-29T10:37:50.534Z,3.39
2023-03-29T10:42:57.876Z,3.42
2023-03-29T10:48:01.732Z,3.50
2023-03-29T10:53:30.078Z,3.61
2023-03-29T10:59:09.410Z,3.68
2023-03-29T11:04:46.772Z,3.70
2023-03-29T11:10:11.324Z,3.77
2023-03-29T11:15:32.698Z,3.87
2023-03-29T11:21:02.246Z,3.97
2023-03-29T11:26:28.441Z,4.14
2023-03-29T11:31:31.341Z,4.21
2023-03-29T11:36:50.602Z,4.31
2023-03-29T11:42:00.035Z,4.43
2023-03-29T11:47:11.487Z,4.52
2023-03-29T11:52:36.912Z,4.68
2023-03-29T11:57:53.886Z,4.86
2023-03-29T12:03:07.680Z,4.95
2023-03-29T12:08:24.986Z,5.03
2023-03-29T12:13:36.847Z,5.17
2023-03-29T12:18:47.857Z,5.31
2023-03-29T12:23:52.015Z,5.36
2023-03-29T12:29:09.768Z,5.45
2023-03-29T12:34:15.248Z,5.61
2023-03-29T12:39:20.415Z,5.71
2023-03-29T12:44:24.380Z,5.88
2023-03-29T12:49:32.861Z,5.91
2023-03-29T12:54:35.706Z,6.02
2023-03-29T12:59:43.865Z,6.13
2023-03-29T13:04:55.867Z,6.23
2023-03-29T13:10:05.351Z,6.32
2023-03-29T13:15:24.838Z,6.32
2023-03-29T13:21:00.001Z,6.37
2023-03-29T13:26:22.175Z,6.51
2023-03-29T13:31:52.534Z,6.69
2023-03-29T13:36:57.916Z,6.81
2023-03-29T13:42:19.928Z,6.80
2023-03-29T13:47:25.730Z,6.84
2023-03-29T13:52:37.121Z,7.09
2023-03-29T13:57:56.875Z,7.18
2023-03-29T14:03:02.275Z,7.16
2023-03-29T14:08:08.888Z,7.19
2023-03-29T14:13:18.288Z,7.09
2023-03-29T14:18:24.084Z,7.36
2023-03-29T14:23:33.799Z,7.58
2023-03-29T14:28:37.717Z,7.69
2023-03-29T14:33:40.682Z,8.17
2023-03-29T14:38:49.057Z,8.91
2023-03-29T14:43:52.040Z,8.69
2023-03-29T14:48:56.563Z,9.02
2023-03-29T14:54:03.309Z,9.94
2023-03-29T14:59:27.547Z,10.64
2023-03-29T15:04:37.634Z,11.16
2023-03-29T15:09:40.869Z,10.87
2023-03-29T15:14:44.023Z,10.00
2023-03-29T15:19:47.032Z,9.26
2023-03-29T15:24:50.245Z,8.67
2023-03-29T15:30:02.937Z,8.10
2023-03-29T15:35:09.360Z,7.56
2023-03-29T15:40:26.511Z,7.23
2023-03-29T15:45:29.501Z,6.95
2023-03-29T15:50:32.712Z,6.72
2023-03-29T15:55:35.824Z,6.54
2023-03-29T16:00:41.809Z,6.33
2023-03-29T16:05:45.501Z,6.11
2023-03-29T16:10:49.469Z,5.90
2023-03-29T16:15:52.451Z,5.64
2023-03-29T16:20:55.561Z,5.45
2023-03-29T16:25:59.497Z,5.30
2023-03-29T16:31:02.393Z,5.18
2023-03-29T16:36:05.912Z,5.06
2023-03-29T16:41:14.984Z,4.95
2023-03-29T16:46:17.934Z,4.83
2023-03-29T16:51:21.792Z,4.69
2023-03-29T16:56:24.706Z,4.55
2023-03-29T17:01:28.150Z,4.40
2023-03-29T17:06:32.797Z,4.25
2023-03-29T17:11:36.399Z,4.10
2023-03-29T17:16:39.457Z,3.94
2023-03-29T17:21:42.601Z,3.78
2023-03-29T17:26:45.968Z,3.63
2023-03-29T17:31:49.278Z,3.49
2023-03-29T17:36:53.544Z,3.38
2023-03-29T17:41:56.761Z,3.26
2023-03-29T17:47:01.085Z,3.14
2023-03-29T17:52:04.413Z,3.04
2023-03-29T17:57:07.621Z,2.94
2023-03-29T18:02:21.411Z,2.85
2023-03-29T18:07:24.588Z,2.77
2023-03-29T18:12:28.858Z,2.68
2023-03-29T18:17:31.750Z,2.60
2023-03-29T18:22:34.633Z,2.53
2023-03-29T18:27:39.134Z,2.46
2023-03-29T18:32:42.251Z,2.41
2023-03-29T18:37:45.200Z,2.39
2023-03-29T18:42:48.094Z,2.36
2023-03-29T18:47:51.220Z,2.34
2023-03-29T18:52:54.313Z,2.31
2023-03-29T18:57:57.217Z,2.29
2023-03-29T19:03:00.232Z,2.27
2023-03-29T19:08:05.865Z,2.27
2023-03-29T19:13:08.917Z,2.30
2023-03-29T19:18:12.007Z,2.35
2023-03-29T19:23:14.911Z,2.38
2023-03-29T19:28:17.815Z,2.43
2023-03-29T19:33:21.634Z,2.46
2023-03-29T19:38:24.852Z,2.46
2023-03-29T19:43:27.755Z,2.45
2023-03-29T19:48:30.843Z,2.44
2023-03-29T19:53:38.194Z,2.41
2023-03-29T19:58:42.309Z,2.40
2023-03-29T20:03:46.555Z,2.37
2023-03-29T20:08:49.837Z,2.30
2023-03-29T20:13:52.741Z,2.20
2023-03-29T20:18:56.542Z,2.05
2023-03-29T20:23:59.477Z,1.87
2023-03-29T20:29:03.420Z,1.73
2023-03-29T20:34:06.304Z,1.64
2023-03-29T20:39:09.622Z,1.57
2023-03-29T20:44:13.782Z,1.56
2023-03-29T20:49:17.675Z,1.55
2023-03-29T20:54:20.487Z,1.54
2023-03-29T20:59:23.491Z,1.51
2023-03-29T21:04:27.085Z,1.50
2023-03-29T21:09:31.239Z,1.49
2023-03-29T21:14:34.244Z,1.49
2023-03-29T21:19:39.195Z,1.57
2023-03-29T21:24:42.117Z,1.71
2023-03-29T21:29:45.313Z,1.84
2023-03-29T21:34:48.215Z,1.96
2023-03-29T21:39:51.117Z,2.03
2023-03-29T21:44:54.120Z,2.06
2023-03-29T21:49:57.015Z,2.09
2023-03-29T21:54:59.928Z,2.12
2023-03-29T22:00:05.177Z,2.17
2023-03-29T22:05:08.681Z,2.17
2023-03-29T22:10:12.557Z,2.13
2023-03-29T22:15:15.436Z,2.10
2023-03-29T22:20:18.606Z,2.08
2023-03-29T22:25:23.055Z,2.06
2023-03-29T22:30:25.898Z,2.07
2023-03-29T22:35:28.796Z,2.10
2023-03-29T22:40:33.437Z,2.20
2023-03-29T22:45:36.560Z,2.34
2023-03-29T22:50:42.975Z,2.45
2023-03-29T22:55:46.898Z,2.50
2023-03-29T23:00:50.097Z,2.56
2023-03-29T23:05:55.951Z,2.58
2023-03-29T23:10:59.369Z,2.72
2023-03-29T23:16:03.773Z,2.95
2023-03-29T23:21:08.969Z,3.14
2023-03-29T23:26:12.058Z,3.26
2023-03-29T23:31:18.375Z,3.37
2023-03-29T23:36:23.191Z,3.42
2023-03-29T23:41:30.861Z,3.43
2023-03-29T23:46:34.107Z,3.44
2023-03-29T23:51:39.249Z,3.47
2023-03-29T23:56:42.304Z,3.49
